Time;durP1;ratioP1;P1;durP2;ratioP2;P2;SDS_P1;SDS_P2;PMS_P1;PMS_P2;Temp;Humidity;BMP_temperature;BMP_pressure;BME280_temperature;BME280_humidity;BME280_pressure;Samples;Min_cycle;Max_cycle;Signal;HPM_P1;HPM_P2
2023/05/20 00:01:08;;;;;;;14.25;5.28;;;;;;;;;;4398497;32;67368;-61
2023/05/20 00:03:56;;;;;;;;;;;;;;;;;;4399434;32;67076;-62
2023/05/20 00:06:42;;;;;;;15.13;4.78;;;;;;;;;;4399791;32;59734;-61
2023/05/20 00:09:30;;;;;;;15.05;5.00;;;;;;;;;;4397962;32;71380;-63
2023/05/20 00:12:16;;;;;;;17.37;5.20;;;;;;;;;;4383702;32;66513;-62
2023/05/20 00:15:03;;;;;;;23.80;5.35;;;;;;;;;;4405219;32;66644;-63
2023/05/20 00:17:51;;;;;;;15.18;5.03;;;;;;;;;;4394654;32;60248;-61
2023/05/20 00:20:37;;;;;;;17.85;4.85;;;;;;;;;;4394361;32;70449;-63
2023/05/20 00:23:24;;;;;;;18.73;4.57;;;;;;;;;;4394221;32;68576;-62
2023/05/20 00:26:11;;;;;;;15.27;4.70;;;;;;;;;;4383529;32;67357;-62
2023/05/20 00:28:58;;;;;;;20.52;4.55;;;;;;;;;;4394435;32;71430;-62
2023/05/20 00:31:45;;;;;;;14.57;4.87;;;;;;;;;;4394792;32;65637;-62
2023/05/20 00:34:32;;;;;;;13.10;4.53;;;;;;;;;;4395215;32;68825;-62
2023/05/20 00:37:19;;;;;;;16.77;4.95;;;;;;;;;;4394185;32;67635;-62
2023/05/20 00:40:06;;;;;;;12.48;4.80;;;;;;;;;;4395238;32;70884;-62
2023/05/20 00:42:52;;;;;;;17.55;5.25;;;;;;;;;;4393559;32;66725;-61
2023/05/20 00:45:39;;;;;;;12.80;4.75;;;;;;;;;;4382768;32;67193;-61
2023/05/20 00:48:42;;;;;;;17.02;5.40;;;;;;;;;;4383631;32;60110;-62
2023/05/20 00:51:29;;;;;;;17.85;6.82;;;;;;;;;;4404323;32;69788;-62
2023/05/20 00:54:17;;;;;;;14.02;5.10;;;;;;;;;;4389649;32;69566;-63
2023/05/20 00:57:05;;;;;;;;;;;;;;;;;;4373346;32;66814;-62
2023/05/20 00:59:53;;;;;;;12.60;4.93;;;;;;;;;;4363295;32;58996;-63
2023/05/20 01:02:39;;;;;;;14.38;5.37;;;;;;;;;;4393967;32;70868;-63
2023/05/20 01:05:26;;;;;;;15.05;4.97;;;;;;;;;;4383508;32;69336;-63
2023/05/20 01:08:12;;;;;;;;;;;;;;;;;;4373297;32;67849;-63
2023/05/20 01:11:22;;;;;;;21.98;7.07;;;;;;;;;;4385450;32;71807;-62
2023/05/20 01:14:09;;;;;;;17.37;6.30;;;;;;;;;;4394706;32;66834;-63
2023/05/20 01:16:57;;;;;;;15.02;5.45;;;;;;;;;;4373121;32;67288;-64
2023/05/20 01:19:45;;;;;;;13.65;5.32;;;;;;;;;;4384539;32;60647;-63
2023/05/20 01:22:32;;;;;;;18.33;5.25;;;;;;;;;;4394392;32;70525;-62
2023/05/20 01:25:18;;;;;;;15.15;4.85;;;;;;;;;;4374354;32;65616;-62
2023/05/20 01:28:06;;;;;;;15.73;4.43;;;;;;;;;;4383025;32;67773;-63
2023/05/20 01:30:54;;;;;;;21.02;7.43;;;;;;;;;;4373500;32;60280;-62
2023/05/20 01:33:42;;;;;;;22.90;7.03;;;;;;;;;;4372676;32;70310;-63
2023/05/20 01:36:28;;;;;;;27.13;7.85;;;;;;;;;;4394197;32;69369;-63
2023/05/20 01:39:15;;;;;;;18.27;7.37;;;;;;;;;;4373435;32;67653;-62
2023/05/20 01:42:04;;;;;;;20.73;6.25;;;;;;;;;;4393423;32;71665;-61
2023/05/20 01:44:51;;;;;;;21.58;6.37;;;;;;;;;;4382586;32;66500;-63
2023/05/20 01:47:37;;;;;;;16.65;5.25;;;;;;;;;;4372745;32;66648;-62
2023/05/20 01:50:25;;;;;;;15.95;4.60;;;;;;;;;;4382925;32;66644;-62
2023/05/20 01:53:13;;;;;;;15.38;4.03;;;;;;;;;;4382790;32;71781;-63
2023/05/20 01:56:02;;;;;;;28.75;5.93;;;;;;;;;;4372633;32;65517;-62
2023/05/20 01:58:48;;;;;;;;;;;;;;;;;;4384285;32;66598;-62
2023/05/20 02:01:35;;;;;;;12.57;4.70;;;;;;;;;;4383407;32;59698;-65
2023/05/20 02:04:22;;;;;;;16.27;4.22;;;;;;;;;;4383131;32;69793;-64
2023/05/20 02:07:09;;;;;;;16.02;4.10;;;;;;;;;;4392688;32;68516;-62
2023/05/20 02:09:56;;;;;;;10.15;3.58;;;;;;;;;;4382863;32;67762;-63
2023/05/20 02:12:43;;;;;;;12.10;3.78;;;;;;;;;;4382968;32;59198;-63
2023/05/20 02:15:30;;;;;;;10.07;4.15;;;;;;;;;;4382600;32;70430;-62
2023/05/20 02:18:17;;;;;;;15.68;3.87;;;;;;;;;;4382164;32;68128;-62
2023/05/20 02:21:05;;;;;;;8.35;4.00;;;;;;;;;;4382720;32;66612;-62
2023/05/20 02:23:51;;;;;;;16.35;4.12;;;;;;;;;;4360866;32;70765;-63
2023/05/20 02:26:38;;;;;;;11.43;4.15;;;;;;;;;;4371848;32;65306;-63
2023/05/20 02:29:27;;;;;;;11.02;4.57;;;;;;;;;;4383185;32;67226;-61
2023/05/20 02:32:14;;;;;;;13.30;4.50;;;;;;;;;;4384245;32;60258;-61
2023/05/20 02:35:01;;;;;;;;;;;;;;;;;;4360873;32;69828;-62
2023/05/20 02:37:48;;;;;;;9.48;5.07;;;;;;;;;;4384202;32;65700;-62
2023/05/20 02:40:34;;;;;;;;;;;;;;;;;;4371853;32;65626;-62
2023/05/20 02:43:20;;;;;;;13.05;4.70;;;;;;;;;;4371617;32;59093;-62
2023/05/20 02:46:07;;;;;;;;;;;;;;;;;;4393408;32;69796;-63
2023/05/20 02:48:53;;;;;;;8.10;4.28;;;;;;;;;;4383568;32;69263;-63
2023/05/20 02:51:40;;;;;;;;;;;;;;;;;;4371958;32;66880;-63
2023/05/20 02:54:26;;;;;;;20.08;7.70;;;;;;;;;;4393597;32;71067;-62
2023/05/20 02:57:14;;;;;;;20.58;5.93;;;;;;;;;;4371782;32;65599;-62
2023/05/20 03:00:00;;;;;;;12.93;5.75;;;;;;;;;;4371738;32;67740;-62
2023/05/20 03:02:48;;;;;;;21.52;7.93;;;;;;;;;;4382111;32;67594;-62
2023/05/20 03:05:37;;;;;;;19.23;7.57;;;;;;;;;;4371252;32;71808;-62
2023/05/20 03:08:24;;;;;;;18.85;6.80;;;;;;;;;;4381558;32;65580;-62
2023/05/20 03:11:11;;;;;;;14.70;6.12;;;;;;;;;;4392617;32;66554;-62
2023/05/20 03:13:58;;;;;;;10.43;5.15;;;;;;;;;;4360535;32;57986;-62
2023/05/20 03:16:45;;;;;;;15.43;4.97;;;;;;;;;;4371074;32;70625;-62
2023/05/20 03:19:31;;;;;;;21.87;5.55;;;;;;;;;;4382028;32;69507;-62
2023/05/20 03:22:18;;;;;;;15.35;4.50;;;;;;;;;;4359981;32;65587;-63
2023/05/20 03:25:06;;;;;;;12.80;3.60;;;;;;;;;;4392460;32;71731;-63
2023/05/20 03:27:52;;;;;;;14.75;4.35;;;;;;;;;;4381439;32;69065;-63
2023/05/20 03:30:39;;;;;;;10.23;3.97;;;;;;;;;;4381983;32;69576;-62
2023/05/20 03:33:26;;;;;;;9.98;4.10;;;;;;;;;;4381360;32;66444;-62
2023/05/20 03:36:13;;;;;;;9.85;3.62;;;;;;;;;;4383179;32;71886;-62
2023/05/20 03:39:00;;;;;;;;;;;;;;;;;;4382222;32;65488;-63
2023/05/20 03:41:48;;;;;;;12.23;3.50;;;;;;;;;;4371330;32;66931;-63
2023/05/20 03:44:34;;;;;;;11.12;3.65;;;;;;;;;;4381880;32;60320;-62
2023/05/20 03:47:22;;;;;;;11.38;3.35;;;;;;;;;;4392249;32;70434;-63
2023/05/20 03:50:09;;;;;;;;;;;;;;;;;;4359896;32;68234;-62
2023/05/20 03:52:56;;;;;;;8.38;3.45;;;;;;;;;;4381854;32;66835;-62
2023/05/20 03:55:43;;;;;;;9.20;3.45;;;;;;;;;;4371173;32;59061;-61
2023/05/20 03:58:30;;;;;;;6.28;3.12;;;;;;;;;;4371177;32;70662;-64
2023/05/20 04:01:56;;;;;;;12.57;3.85;;;;;;;;;;3801696;37;43795;-62
2023/05/20 04:04:44;;;;;;;7.60;2.70;;;;;;;;;;4379771;32;59166;-63
2023/05/20 04:07:31;;;;;;;8.50;3.17;;;;;;;;;;4368928;32;70477;-63
2023/05/20 04:10:20;;;;;;;13.95;3.42;;;;;;;;;;4368338;32;68061;-62
2023/05/20 04:13:07;;;;;;;15.00;3.65;;;;;;;;;;4368584;32;67474;-62
2023/05/20 04:15:54;;;;;;;10.68;3.70;;;;;;;;;;4368777;32;71940;-61
2023/05/20 04:18:40;;;;;;;6.37;2.30;;;;;;;;;;4368099;32;64163;-62
2023/05/20 04:21:27;;;;;;;7.80;3.20;;;;;;;;;;4368616;32;65031;-62
2023/05/20 04:24:14;;;;;;;11.95;3.58;;;;;;;;;;4380432;32;60022;-62
2023/05/20 04:27:01;;;;;;;12.20;2.97;;;;;;;;;;4369183;32;72138;-63
2023/05/20 04:29:48;;;;;;;8.57;3.47;;;;;;;;;;4379083;32;65451;-63
2023/05/20 04:32:34;;;;;;;10.55;3.35;;;;;;;;;;4368813;32;67800;-62
2023/05/20 04:35:24;;;;;;;;;;;;;;;;;;4369120;32;59159;-62
2023/05/20 04:38:12;;;;;;;12.48;2.95;;;;;;;;;;4368672;32;69891;-63
2023/05/20 04:41:02;;;;;;;7.37;3.20;;;;;;;;;;4368633;32;68430;-62
2023/05/20 04:43:49;;;;;;;9.68;3.58;;;;;;;;;;4368439;32;66675;-63
2023/05/20 04:46:36;;;;;;;12.25;3.40;;;;;;;;;;4368158;32;70967;-63
2023/05/20 04:49:24;;;;;;;7.75;3.42;;;;;;;;;;4368155;32;64045;-63
2023/05/20 04:52:11;;;;;;;8.65;3.30;;;;;;;;;;4369134;32;68420;-63
2023/05/20 04:55:00;;;;;;;6.62;2.87;;;;;;;;;;4378765;32;66704;-62
2023/05/20 04:57:47;;;;;;;9.43;3.03;;;;;;;;;;4368319;32;71640;-63
2023/05/20 05:00:34;;;;;;;9.45;3.25;;;;;;;;;;4378606;32;66296;-63
2023/05/20 05:03:20;;;;;;;;;;;;;;;;;;4368480;32;66825;-63
2023/05/20 05:06:07;;;;;;;9.80;3.17;;;;;;;;;;4379074;32;59427;-62
2023/05/20 05:08:54;;;;;;;;;;;;;;;;;;4368364;32;70418;-62
2023/05/20 05:11:41;;;;;;;8.20;3.33;;;;;;;;;;4364528;32;68498;-62
2023/05/20 05:14:28;;;;;;;12.00;3.05;;;;;;;;;;4347210;32;69110;-62
2023/05/20 05:17:15;;;;;;;13.18;4.12;;;;;;;;;;4347774;32;60856;-63
2023/05/20 05:20:01;;;;;;;10.82;3.80;;;;;;;;;;4368438;32;70659;-62
2023/05/20 05:22:50;;;;;;;7.37;3.10;;;;;;;;;;4347982;32;68563;-63
2023/05/20 05:25:36;;;;;;;8.07;2.85;;;;;;;;;;4347313;32;67678;-63
2023/05/20 05:28:23;;;;;;;;;;;;;;;;;;4368624;32;71733;-63
2023/05/20 05:31:09;;;;;;;11.57;3.12;;;;;;;;;;4368542;32;66972;-64
2023/05/20 05:33:56;;;;;;;7.57;3.10;;;;;;;;;;4347581;32;67556;-64
2023/05/20 05:36:43;;;;;;;;;;;;;;;;;;4369186;32;59066;-62
2023/05/20 05:39:29;;;;;;;7.10;2.75;;;;;;;;;;4369425;32;69433;-62
2023/05/20 05:42:16;;;;;;;6.55;2.60;;;;;;;;;;4357447;32;67531;-62
2023/05/20 05:45:03;;;;;;;7.15;2.72;;;;;;;;;;4336460;32;68141;-63
2023/05/20 05:47:50;;;;;;;9.95;3.28;;;;;;;;;;4357941;32;60242;-63
2023/05/20 05:50:38;;;;;;;14.48;3.37;;;;;;;;;;4347154;32;70566;-63
2023/05/20 05:53:24;;;;;;;9.80;2.70;;;;;;;;;;4347904;32;69772;-63
2023/05/20 05:56:12;;;;;;;7.37;2.30;;;;;;;;;;4347030;32;66875;-64
2023/05/20 05:58:59;;;;;;;5.15;2.20;;;;;;;;;;4346767;32;71913;-63
2023/05/20 06:01:46;;;;;;;5.37;2.42;;;;;;;;;;4346633;32;66822;-63
2023/05/20 06:04:34;;;;;;;8.02;2.37;;;;;;;;;;4336353;32;68460;-62
2023/05/20 06:07:22;;;;;;;;;;;;;;;;;;4368737;32;67019;-63
2023/05/20 06:10:09;;;;;;;12.00;2.62;;;;;;;;;;4356572;32;72605;-63
2023/05/20 06:12:56;;;;;;;6.70;2.75;;;;;;;;;;4367532;32;65823;-63
2023/05/20 06:15:44;;;;;;;7.82;2.83;;;;;;;;;;4357230;32;67654;-63
2023/05/20 06:18:31;;;;;;;4.50;2.15;;;;;;;;;;4347087;32;60093;-62
2023/05/20 06:21:17;;;;;;;;;;;;;;;;;;4356921;32;71158;-63
2023/05/20 06:24:04;;;;;;;6.45;2.05;;;;;;;;;;4367043;32;69898;-63
2023/05/20 06:26:52;;;;;;;7.45;2.20;;;;;;;;;;4357131;32;66950;-62
2023/05/20 06:29:38;;;;;;;4.43;1.80;;;;;;;;;;4347208;32;59085;-63
2023/05/20 06:32:25;;;;;;;;;;;;;;;;;;4368196;32;70443;-62
2023/05/20 06:35:14;;;;;;;7.90;2.35;;;;;;;;;;4367621;32;69546;-63
2023/05/20 06:38:02;;;;;;;10.02;2.60;;;;;;;;;;4367497;32;67546;-62
2023/05/20 06:40:49;;;;;;;6.62;2.40;;;;;;;;;;4367392;32;71683;-63
2023/05/20 06:43:36;;;;;;;7.97;2.60;;;;;;;;;;4346150;32;67546;-63
2023/05/20 06:46:22;;;;;;;6.50;2.10;;;;;;;;;;4346941;32;66724;-63
2023/05/20 06:49:10;;;;;;;3.83;2.20;;;;;;;;;;4346883;32;58602;-62
2023/05/20 06:51:56;;;;;;;4.93;2.20;;;;;;;;;;4346785;32;70509;-63
2023/05/20 06:54:44;;;;;;;7.70;2.62;;;;;;;;;;4357835;32;67072;-62
2023/05/20 06:57:30;;;;;;;7.28;2.55;;;;;;;;;;4360281;32;66628;-62
2023/05/20 07:00:18;;;;;;;6.15;2.45;;;;;;;;;;4360236;32;59219;-63
2023/05/20 07:03:05;;;;;;;6.40;2.90;;;;;;;;;;4357686;32;69574;-62
2023/05/20 07:05:52;;;;;;;9.20;3.42;;;;;;;;;;4356338;32;70136;-63
2023/05/20 07:08:39;;;;;;;7.47;2.87;;;;;;;;;;4346475;32;66590;-63
2023/05/20 07:11:27;;;;;;;8.30;2.40;;;;;;;;;;4345819;32;71466;-62
2023/05/20 07:14:14;;;;;;;7.72;2.67;;;;;;;;;;4357086;32;65354;-62
2023/05/20 07:17:01;;;;;;;4.40;2.60;;;;;;;;;;4345834;32;68135;-62
2023/05/20 07:19:48;;;;;;;8.45;2.95;;;;;;;;;;4345299;32;68249;-63
2023/05/20 07:22:36;;;;;;;7.65;3.10;;;;;;;;;;4346371;32;71947;-64
2023/05/20 07:25:22;;;;;;;9.20;3.30;;;;;;;;;;4356696;32;66437;-62
2023/05/20 07:28:09;;;;;;;8.88;3.10;;;;;;;;;;4356693;32;67787;-62
2023/05/20 07:30:56;;;;;;;6.93;2.80;;;;;;;;;;4346261;32;59191;-62
2023/05/20 07:33:44;;;;;;;9.70;2.90;;;;;;;;;;4356464;32;69906;-63
2023/05/20 07:36:31;;;;;;;4.47;2.00;;;;;;;;;;4334557;32;68885;-63
2023/05/20 07:39:19;;;;;;;7.90;2.40;;;;;;;;;;4356595;32;66798;-64
2023/05/20 07:42:06;;;;;;;8.38;2.70;;;;;;;;;;4346761;32;72675;-62
2023/05/20 07:44:53;;;;;;;7.35;2.87;;;;;;;;;;4357904;32;70792;-63
2023/05/20 07:47:39;;;;;;;7.57;3.10;;;;;;;;;;4358419;32;69471;-62
2023/05/20 07:50:27;;;;;;;7.53;2.42;;;;;;;;;;4357012;32;67628;-63
2023/05/20 07:53:13;;;;;;;;;;;;;;;;;;4334842;32;70790;-62
2023/05/20 07:56:00;;;;;;;5.57;2.10;;;;;;;;;;4355608;32;68088;-62
2023/05/20 07:58:57;;;;;;;9.23;2.70;;;;;;;;;;4355768;32;67868;-63
2023/05/20 08:01:45;;;;;;;6.32;2.60;;;;;;;;;;4366811;32;60207;-63
2023/05/20 08:04:33;;;;;;;7.20;2.65;;;;;;;;;;4345624;32;71184;-62
2023/05/20 08:07:20;;;;;;;;;;;;;;;;;;4366872;32;68443;-63
2023/05/20 08:10:08;;;;;;;3.28;1.87;;;;;;;;;;4366680;32;66921;-62
2023/05/20 08:12:56;;;;;;;8.60;2.65;;;;;;;;;;4344993;32;60782;-63
2023/05/20 08:15:43;;;;;;;6.70;2.62;;;;;;;;;;4356810;32;70466;-63
2023/05/20 08:18:31;;;;;;;4.37;2.10;;;;;;;;;;4355806;32;69453;-63
2023/05/20 08:21:18;;;;;;;5.12;2.58;;;;;;;;;;4356034;32;67530;-63
2023/05/20 08:24:05;;;;;;;7.57;2.75;;;;;;;;;;4344745;32;71616;-62
2023/05/20 08:26:52;;;;;;;6.95;2.75;;;;;;;;;;4356201;32;66520;-63
2023/05/20 08:29:39;;;;;;;5.97;2.95;;;;;;;;;;4355537;32;68085;-63
2023/05/20 08:32:26;;;;;;;8.20;2.70;;;;;;;;;;4356293;32;59303;-63
2023/05/20 08:35:13;;;;;;;7.28;2.42;;;;;;;;;;4366233;32;70814;-63
2023/05/20 08:38:02;;;;;;;5.32;2.58;;;;;;;;;;4336422;32;67463;-62
2023/05/20 08:41:07;;;;;;;7.68;2.65;;;;;;;;;;4344880;32;67475;-63
2023/05/20 08:43:54;;;;;;;5.22;2.40;;;;;;;;;;4345652;32;60315;-62
2023/05/20 08:46:42;;;;;;;5.03;2.78;;;;;;;;;;4356098;32;70494;-63
2023/05/20 08:49:30;;;;;;;7.50;2.50;;;;;;;;;;4348559;32;69404;-63
2023/05/20 08:52:19;;;;;;;4.10;2.30;;;;;;;;;;4357585;32;67552;-63
2023/05/20 08:55:08;;;;;;;6.87;2.55;;;;;;;;;;4347475;32;71425;-62
2023/05/20 08:57:55;;;;;;;6.90;3.10;;;;;;;;;;4358174;32;70653;-63
2023/05/20 09:00:42;;;;;;;5.07;2.42;;;;;;;;;;4368128;32;69243;-64
2023/05/20 09:03:29;;;;;;;;;;;;;;;;;;4358538;32;67449;-63
2023/05/20 09:06:41;;;;;;;4.07;2.45;;;;;;;;;;4358353;32;70963;-63
2023/05/20 09:09:34;;;;;;;6.07;2.42;;;;;;;;;;4358384;32;64377;-63
2023/05/20 09:12:21;;;;;;;4.93;2.50;;;;;;;;;;4347456;32;67833;-62
2023/05/20 09:15:07;;;;;;;;;;;;;;;;;;4336846;32;59190;-62
2023/05/20 09:17:54;;;;;;;4.72;2.53;;;;;;;;;;4368496;32;69586;-61
2023/05/20 09:20:40;;;;;;;;;;;;;;;;;;4357842;32;68993;-61
2023/05/20 09:23:29;;;;;;;4.10;2.10;;;;;;;;;;4369782;32;67864;-65
2023/05/20 09:26:17;;;;;;;3.53;2.10;;;;;;;;;;4347813;32;60347;-62
2023/05/20 09:29:05;;;;;;;3.35;2.20;;;;;;;;;;4336048;32;71343;-63
2023/05/20 09:31:52;;;;;;;5.05;2.47;;;;;;;;;;4347541;32;69563;-63
2023/05/20 09:34:41;;;;;;;5.57;2.80;;;;;;;;;;4347470;32;66861;-62
2023/05/20 09:37:27;;;;;;;7.10;3.42;;;;;;;;;;4357157;32;72363;-62
2023/05/20 09:40:16;;;;;;;6.95;3.28;;;;;;;;;;4346697;32;67323;-62
2023/05/20 09:43:06;;;;;;;5.22;2.75;;;;;;;;;;4351389;32;67564;-62
2023/05/20 09:45:54;;;;;;;6.55;2.60;;;;;;;;;;4368671;32;59169;-63
2023/05/20 09:48:40;;;;;;;5.50;3.28;;;;;;;;;;4368027;32;70804;-62
2023/05/20 09:51:28;;;;;;;6.10;2.50;;;;;;;;;;4367876;32;65513;-63
2023/05/20 09:54:17;;;;;;;5.55;2.55;;;;;;;;;;4335936;32;68355;-63
2023/05/20 09:57:05;;;;;;;8.10;3.12;;;;;;;;;;4373806;32;59187;-62
2023/05/20 09:59:52;;;;;;;5.07;2.70;;;;;;;;;;4349666;32;69358;-63
2023/05/20 10:02:49;;;;;;;6.03;2.75;;;;;;;;;;4357718;32;69524;-62
2023/05/20 10:05:40;;;;;;;4.57;2.50;;;;;;;;;;4357581;32;66803;-62
2023/05/20 10:09:01;;;;;;;7.28;2.80;;;;;;;;;;4368091;32;71634;-61
2023/05/20 10:11:57;;;;;;;9.15;3.10;;;;;;;;;;4347193;32;65916;-65
2023/05/20 10:15:30;;;;;;;5.65;3.30;;;;;;;;;;4356777;32;69882;-63
2023/05/20 10:18:19;;;;;;;5.65;2.55;;;;;;;;;;4357825;32;68016;-62
2023/05/20 10:21:21;;;;;;;5.62;2.50;;;;;;;;;;4367345;32;71364;-63
2023/05/20 10:24:09;;;;;;;7.12;4.43;;;;;;;;;;4347476;32;65562;-63
2023/05/20 10:26:56;;;;;;;5.57;3.00;;;;;;;;;;4357569;32;67967;-62
2023/05/20 10:29:44;;;;;;;6.93;2.55;;;;;;;;;;4356973;32;60266;-63
2023/05/20 10:32:32;;;;;;;10.07;3.60;;;;;;;;;;4357066;32;70577;-62
2023/05/20 10:35:26;;;;;;;9.75;3.20;;;;;;;;;;4357137;32;69612;-62
2023/05/20 10:38:13;;;;;;;7.05;2.65;;;;;;;;;;4368068;32;67822;-62
2023/05/20 10:41:12;;;;;;;5.70;2.58;;;;;;;;;;4357585;32;60131;-63
2023/05/20 10:44:00;;;;;;;7.30;3.10;;;;;;;;;;4346937;32;70512;-62
2023/05/20 10:46:47;;;;;;;5.10;2.58;;;;;;;;;;4357163;32;69363;-63
2023/05/20 10:49:34;;;;;;;;;;;;;;;;;;4347413;32;66830;-62
2023/05/20 10:52:21;;;;;;;4.28;2.37;;;;;;;;;;4356921;32;72069;-61
2023/05/20 10:55:19;;;;;;;6.65;2.50;;;;;;;;;;4345813;32;67335;-62
2023/05/20 10:58:06;;;;;;;4.07;2.40;;;;;;;;;;4356813;32;66927;-63
2023/05/20 11:00:54;;;;;;;5.07;2.50;;;;;;;;;;4356690;32;59158;-62
2023/05/20 11:03:42;;;;;;;5.03;2.70;;;;;;;;;;4367135;32;71107;-64
2023/05/20 11:06:29;;;;;;;5.78;2.95;;;;;;;;;;4367387;32;66740;-62
2023/05/20 11:09:16;;;;;;;7.82;3.00;;;;;;;;;;4367048;32;68623;-62
2023/05/20 11:12:03;;;;;;;6.00;2.90;;;;;;;;;;4357215;32;59289;-62
2023/05/20 11:14:50;;;;;;;4.68;2.83;;;;;;;;;;4367500;32;69567;-63
2023/05/20 11:17:37;;;;;;;5.40;3.08;;;;;;;;;;4346259;32;69563;-62
2023/05/20 11:20:23;;;;;;;;;;;;;;;;;;4345735;32;68048;-62
2023/05/20 11:23:12;;;;;;;5.30;2.87;;;;;;;;;;4356641;32;70956;-63
2023/05/20 11:25:59;;;;;;;4.00;2.55;;;;;;;;;;4345482;32;64435;-63
2023/05/20 11:28:46;;;;;;;;;;;;;;;;;;4346455;32;68580;-62
2023/05/20 11:31:32;;;;;;;15.77;3.57;;;;;;;;;;4367145;32;67975;-63
2023/05/20 11:34:22;;;;;;;6.47;2.80;;;;;;;;;;4345191;32;72356;-62
2023/05/20 11:37:10;;;;;;;5.43;2.90;;;;;;;;;;4355708;32;66256;-63
2023/05/20 11:40:06;;;;;;;11.55;3.47;;;;;;;;;;4367639;32;67727;-64
2023/05/20 11:42:55;;;;;;;7.22;3.12;;;;;;;;;;4346032;32;59232;-62
2023/05/20 11:45:46;;;;;;;5.53;3.12;;;;;;;;;;4347447;32;70410;-62
2023/05/20 11:48:33;;;;;;;8.80;3.37;;;;;;;;;;4366790;32;68204;-63
2023/05/20 11:51:25;;;;;;;;;;;;;;;;;;4345615;32;68050;-63
2023/05/20 11:54:11;;;;;;;4.68;3.08;;;;;;;;;;4356751;32;59833;-62
2023/05/20 11:56:58;;;;;;;6.12;3.10;;;;;;;;;;4366519;32;69444;-63
2023/05/20 11:59:46;;;;;;;5.87;3.22;;;;;;;;;;4355805;32;69419;-62
2023/05/20 12:02:33;;;;;;;6.15;3.45;;;;;;;;;;4366410;32;67497;-62
2023/05/20 12:05:20;;;;;;;8.95;3.72;;;;;;;;;;4356126;32;72539;-62
2023/05/20 12:08:07;;;;;;;8.18;3.95;;;;;;;;;;4356336;32;66110;-62
2023/05/20 12:10:54;;;;;;;4.70;2.70;;;;;;;;;;4355596;32;68773;-62
2023/05/20 12:13:41;;;;;;;6.22;2.90;;;;;;;;;;4345016;32;59902;-63
2023/05/20 12:19:11;;;;;;;7.93;3.50;;;;;;;;;;3847841;37;43133;-63
2023/05/20 12:21:58;;;;;;;6.65;3.33;;;;;;;;;;4399704;32;59693;-62
2023/05/20 12:24:45;;;;;;;7.32;2.87;;;;;;;;;;4399364;32;70456;-62
2023/05/20 12:27:32;;;;;;;6.78;3.85;;;;;;;;;;4390992;32;69516;-63
2023/05/20 12:30:21;;;;;;;7.50;3.60;;;;;;;;;;4392124;32;67557;-63
2023/05/20 12:33:08;;;;;;;5.28;3.62;;;;;;;;;;4380063;32;72149;-63
2023/05/20 12:35:54;;;;;;;;;;;;;;;;;;4378174;32;64405;-63
2023/05/20 12:38:41;;;;;;;6.93;3.00;;;;;;;;;;4409520;32;65625;-62
2023/05/20 12:41:28;;;;;;;5.37;2.62;;;;;;;;;;4388685;32;60482;-63
2023/05/20 12:44:14;;;;;;;6.28;2.78;;;;;;;;;;4388221;32;70821;-63
2023/05/20 12:47:01;;;;;;;;;;;;;;;;;;4410033;32;65651;-62
2023/05/20 12:49:47;;;;;;;4.87;2.72;;;;;;;;;;4409564;32;67816;-62
2023/05/20 12:52:34;;;;;;;;;;;;;;;;;;4410480;32;59179;-62
2023/05/20 12:55:21;;;;;;;6.40;3.67;;;;;;;;;;4409352;32;70611;-62
2023/05/20 12:58:10;;;;;;;;;;;;;;;;;;4388181;32;68204;-62
2023/05/20 13:00:56;;;;;;;6.15;3.37;;;;;;;;;;4399367;32;67431;-61
2023/05/20 13:03:43;;;;;;;;;;;;;;;;;;4387940;32;73782;-62
2023/05/20 13:06:30;;;;;;;5.80;2.67;;;;;;;;;;4409935;32;66692;-63
2023/05/20 13:09:17;;;;;;;7.40;3.30;;;;;;;;;;4387912;32;68822;-63
2023/05/20 13:12:04;;;;;;;7.65;3.35;;;;;;;;;;4399931;32;67978;-62
2023/05/20 13:14:51;;;;;;;4.78;2.85;;;;;;;;;;4400537;32;70636;-63
2023/05/20 13:17:38;;;;;;;5.40;2.65;;;;;;;;;;4376808;32;67308;-62
2023/05/20 13:20:25;;;;;;;3.70;2.70;;;;;;;;;;4398792;32;66540;-64
2023/05/20 13:23:12;;;;;;;5.53;2.78;;;;;;;;;;4410896;32;59851;-62
2023/05/20 13:25:59;;;;;;;;;;;;;;;;;;4389500;32;70379;-62
2023/05/20 13:28:46;;;;;;;3.45;2.50;;;;;;;;;;4409055;32;69551;-63
2023/05/20 13:31:33;;;;;;;4.07;2.45;;;;;;;;;;4392066;32;67472;-62
2023/05/20 13:34:20;;;;;;;6.50;3.00;;;;;;;;;;4378258;32;59016;-63
2023/05/20 13:37:07;;;;;;;7.47;3.05;;;;;;;;;;4388085;32;69446;-61
2023/05/20 13:39:54;;;;;;;4.30;2.80;;;;;;;;;;4388508;32;68258;-63
2023/05/20 13:42:40;;;;;;;;;;;;;;;;;;4399425;32;67644;-63
2023/05/20 13:45:28;;;;;;;7.85;3.65;;;;;;;;;;4387595;32;71469;-63
2023/05/20 13:48:14;;;;;;;6.05;3.60;;;;;;;;;;4398758;32;66583;-62
2023/05/20 13:51:01;;;;;;;5.30;3.20;;;;;;;;;;4388373;32;66690;-63
2023/05/20 13:53:48;;;;;;;7.45;3.17;;;;;;;;;;4388220;32;60470;-62
2023/05/20 13:56:34;;;;;;;;;;;;;;;;;;4398370;32;70233;-63
2023/05/20 13:59:20;;;;;;;7.37;4.45;;;;;;;;;;4398415;32;64492;-62
2023/05/20 14:02:07;;;;;;;;;;;;;;;;;;4400561;32;66651;-63
2023/05/20 14:04:53;;;;;;;10.52;4.57;;;;;;;;;;4389470;32;58999;-62
2023/05/20 14:07:40;;;;;;;8.13;4.57;;;;;;;;;;4377479;32;70617;-63
2023/05/20 14:10:27;;;;;;;7.37;3.90;;;;;;;;;;4388078;32;69725;-62
2023/05/20 14:13:14;;;;;;;7.82;4.25;;;;;;;;;;4398403;32;67883;-63
2023/05/20 14:16:01;;;;;;;6.57;3.85;;;;;;;;;;4377486;32;71598;-61
2023/05/20 14:18:48;;;;;;;8.10;3.65;;;;;;;;;;4398602;32;66170;-63
2023/05/20 14:21:35;;;;;;;5.55;3.50;;;;;;;;;;4378658;32;66949;-62
2023/05/20 14:24:22;;;;;;;7.95;4.05;;;;;;;;;;4387882;32;67448;-63
2023/05/20 14:27:10;;;;;;;13.32;4.22;;;;;;;;;;4376596;32;71228;-62
2023/05/20 14:29:56;;;;;;;5.72;3.42;;;;;;;;;;4387692;32;66086;-62
2023/05/20 14:32:43;;;;;;;;;;;;;;;;;;4399076;32;66748;-63
2023/05/20 14:35:29;;;;;;;10.93;5.53;;;;;;;;;;4377439;32;60736;-62
2023/05/20 14:38:17;;;;;;;23.95;5.93;;;;;;;;;;4377262;32;69381;-63
2023/05/20 14:41:04;;;;;;;7.87;4.03;;;;;;;;;;4365762;32;69892;-62
2023/05/20 14:43:51;;;;;;;6.22;4.20;;;;;;;;;;4367430;32;65114;-63
2023/05/20 14:46:37;;;;;;;;;;;;;;;;;;4366572;32;60681;-62
2023/05/20 14:49:24;;;;;;;8.57;3.75;;;;;;;;;;4387052;32;69594;-62
2023/05/20 14:52:11;;;;;;;6.87;4.20;;;;;;;;;;4387300;32;69520;-63
2023/05/20 14:54:57;;;;;;;;;;;;;;;;;;4387640;32;66522;-62
2023/05/20 14:57:44;;;;;;;8.10;4.57;;;;;;;;;;4387352;32;71901;-62
2023/05/20 15:00:31;;;;;;;10.57;4.93;;;;;;;;;;4399304;32;66894;-63
2023/05/20 15:03:19;;;;;;;8.23;4.80;;;;;;;;;;4379228;32;66956;-63
2023/05/20 15:06:06;;;;;;;8.48;5.10;;;;;;;;;;4387557;32;59156;-63
2023/05/20 15:08:53;;;;;;;13.23;5.55;;;;;;;;;;4387047;32;70437;-62
2023/05/20 15:11:40;;;;;;;7.07;4.25;;;;;;;;;;4387249;32;66467;-62
2023/05/20 15:14:26;;;;;;;;;;;;;;;;;;4376155;32;68060;-62
2023/05/20 15:17:13;;;;;;;11.88;7.68;;;;;;;;;;4387091;32;58501;-63
2023/05/20 15:20:00;;;;;;;;;;;;;;;;;;4387208;32;69516;-63
2023/05/20 15:22:47;;;;;;;13.77;5.77;;;;;;;;;;4376072;32;70365;-63
2023/05/20 15:25:33;;;;;;;9.68;5.43;;;;;;;;;;4375604;32;65753;-63
2023/05/20 15:28:20;;;;;;;10.25;5.53;;;;;;;;;;4375226;32;71381;-63
2023/05/20 15:31:06;;;;;;;;;;;;;;;;;;4387158;32;65519;-62
2023/05/20 15:33:54;;;;;;;7.55;4.22;;;;;;;;;;4398676;32;68192;-62
2023/05/20 15:36:41;;;;;;;6.85;4.45;;;;;;;;;;4376419;32;66774;-62
2023/05/20 15:39:28;;;;;;;6.32;3.80;;;;;;;;;;4386204;32;72333;-62
2023/05/20 15:42:17;;;;;;;;;;;;;;;;;;4386649;32;67278;-61
2023/05/20 15:45:04;;;;;;;6.93;3.67;;;;;;;;;;4376638;32;67733;-62
2023/05/20 15:47:50;;;;;;;8.38;4.05;;;;;;;;;;4365045;32;59711;-63
2023/05/20 15:50:37;;;;;;;;;;;;;;;;;;4397666;32;70718;-63
2023/05/20 15:53:23;;;;;;;6.85;3.60;;;;;;;;;;4375260;32;70669;-62
2023/05/20 15:56:12;;;;;;;5.82;3.42;;;;;;;;;;4386293;32;68217;-62
2023/05/20 15:58:59;;;;;;;7.35;3.75;;;;;;;;;;4397509;32;71078;-64
2023/05/20 16:01:46;;;;;;;8.40;3.42;;;;;;;;;;4377860;32;70325;-62
2023/05/20 16:04:33;;;;;;;6.30;3.80;;;;;;;;;;4376275;32;68591;-62
2023/05/20 16:07:19;;;;;;;6.85;3.55;;;;;;;;;;4398601;32;67631;-62
2023/05/20 16:10:07;;;;;;;7.28;3.85;;;;;;;;;;4387256;32;70675;-62
2023/05/20 16:12:53;;;;;;;7.35;3.58;;;;;;;;;;4397594;32;65729;-63
2023/05/20 16:15:40;;;;;;;;;;;;;;;;;;4376414;32;66939;-62
2023/05/20 16:18:30;;;;;;;14.38;5.00;;;;;;;;;;4397224;32;58959;-63
2023/05/20 16:21:17;;;;;;;9.10;4.20;;;;;;;;;;4375836;32;71214;-62
2023/05/20 16:24:06;;;;;;;8.70;4.87;;;;;;;;;;4386232;32;70030;-63
2023/05/20 16:26:53;;;;;;;11.70;4.68;;;;;;;;;;3847973;37;43519;-62
2023/05/20 16:29:40;;;;;;;9.25;4.28;;;;;;;;;;4389141;32;59006;-62
2023/05/20 16:32:27;;;;;;;12.77;5.45;;;;;;;;;;4403064;32;70482;-62
2023/05/20 16:35:15;;;;;;;13.80;5.87;;;;;;;;;;4399412;32;69331;-63
2023/05/20 16:38:01;;;;;;;17.92;6.37;;;;;;;;;;4388706;32;67150;-62
2023/05/20 16:40:48;;;;;;;17.58;7.28;;;;;;;;;;4409817;32;71990;-63
2023/05/20 16:43:35;;;;;;;15.75;6.40;;;;;;;;;;4399486;32;65549;-63
2023/05/20 16:46:21;;;;;;;13.38;5.40;;;;;;;;;;4387683;32;67610;-62
2023/05/20 16:49:08;;;;;;;15.45;5.97;;;;;;;;;;4388586;32;60253;-62
2023/05/20 16:51:55;;;;;;;13.35;5.72;;;;;;;;;;4388272;32;71618;-63
2023/05/20 16:54:41;;;;;;;12.13;5.53;;;;;;;;;;4399206;32;65392;-63
2023/05/20 16:57:31;;;;;;;11.85;5.32;;;;;;;;;;4400622;32;67616;-65
2023/05/20 17:00:18;;;;;;;;;;;;;;;;;;4410425;32;60088;-62